sensor_id;sensor_type;location;lat;lon;timestamp;P1;durP1;ratioP1;P2;durP2;ratioP2
19897;SDS011;10111;50.814;4.572;2022-11-22T00:00:58;10.40;;;2.90;;
19897;SDS011;10111;50.814;4.572;2022-11-22T00:03:24;10.50;;;2.73;;
19897;SDS011;10111;50.814;4.572;2022-11-22T00:05:50;10.60;;;2.80;;
19897;SDS011;10111;50.814;4.572;2022-11-22T00:08:16;6.40;;;2.40;;
19897;SDS011;10111;50.814;4.572;2022-11-22T00:10:41;7.30;;;2.50;;
19897;SDS011;10111;50.814;4.572;2022-11-22T00:13:07;10.67;;;3.17;;
19897;SDS011;10111;50.814;4.572;2022-11-22T00:15:33;7.47;;;2.20;;
19897;SDS011;10111;50.814;4.572;2022-11-22T00:17:59;10.47;;;2.27;;
19897;SDS011;10111;50.814;4.572;2022-11-22T00:20:25;6.33;;;2.33;;
19897;SDS011;10111;50.814;4.572;2022-11-22T00:22:51;8.23;;;3.13;;
19897;SDS011;10111;50.814;4.572;2022-11-22T00:25:17;7.47;;;2.57;;
19897;SDS011;10111;50.814;4.572;2022-11-22T00:27:43;7.07;;;2.70;;
19897;SDS011;10111;50.814;4.572;2022-11-22T00:30:08;12.87;;;3.17;;
19897;SDS011;10111;50.814;4.572;2022-11-22T00:32:34;13.53;;;3.23;;
19897;SDS011;10111;50.814;4.572;2022-11-22T00:35:00;6.37;;;2.60;;
19897;SDS011;10111;50.814;4.572;2022-11-22T00:37:26;7.73;;;3.20;;
19897;SDS011;10111;50.814;4.572;2022-11-22T00:39:52;8.47;;;2.50;;
19897;SDS011;10111;50.814;4.572;2022-11-22T00:42:18;13.27;;;3.20;;
19897;SDS011;10111;50.814;4.572;2022-11-22T00:44:43;11.50;;;2.60;;
19897;SDS011;10111;50.814;4.572;2022-11-22T00:47:09;4.23;;;2.23;;
19897;SDS011;10111;50.814;4.572;2022-11-22T00:49:34;11.20;;;3.27;;
19897;SDS011;10111;50.814;4.572;2022-11-22T00:52:00;14.37;;;3.13;;
19897;SDS011;10111;50.814;4.572;2022-11-22T00:54:26;9.00;;;2.83;;
19897;SDS011;10111;50.814;4.572;2022-11-22T00:56:51;5.67;;;2.60;;
19897;SDS011;10111;50.814;4.572;2022-11-22T00:59:17;10.17;;;3.20;;
19897;SDS011;10111;50.814;4.572;2022-11-22T01:01:42;12.93;;;2.47;;
19897;SDS011;10111;50.814;4.572;2022-11-22T01:04:08;15.33;;;3.13;;
19897;SDS011;10111;50.814;4.572;2022-11-22T01:06:34;8.83;;;2.57;;
19897;SDS011;10111;50.814;4.572;2022-11-22T01:08:59;6.13;;;2.07;;
19897;SDS011;10111;50.814;4.572;2022-11-22T01:11:25;20.20;;;2.57;;
19897;SDS011;10111;50.814;4.572;2022-11-22T01:13:51;8.87;;;2.20;;
19897;SDS011;10111;50.814;4.572;2022-11-22T01:16:17;4.27;;;2.40;;
19897;SDS011;10111;50.814;4.572;2022-11-22T01:18:43;10.77;;;2.60;;
19897;SDS011;10111;50.814;4.572;2022-11-22T01:21:09;5.80;;;2.07;;
19897;SDS011;10111;50.814;4.572;2022-11-22T01:23:35;9.23;;;2.20;;
19897;SDS011;10111;50.814;4.572;2022-11-22T01:26:01;10.33;;;2.23;;
19897;SDS011;10111;50.814;4.572;2022-11-22T01:28:27;15.83;;;3.07;;
19897;SDS011;10111;50.814;4.572;2022-11-22T01:30:53;8.73;;;2.90;;
19897;SDS011;10111;50.814;4.572;2022-11-22T01:33:18;4.43;;;2.27;;
19897;SDS011;10111;50.814;4.572;2022-11-22T01:35:45;6.20;;;1.97;;
19897;SDS011;10111;50.814;4.572;2022-11-22T01:38:10;6.97;;;2.63;;
19897;SDS011;10111;50.814;4.572;2022-11-22T01:40:36;6.90;;;2.27;;
19897;SDS011;10111;50.814;4.572;2022-11-22T01:43:02;8.53;;;2.20;;
19897;SDS011;10111;50.814;4.572;2022-11-22T01:45:42;4.23;;;1.93;;
19897;SDS011;10111;50.814;4.572;2022-11-22T01:48:15;4.40;;;1.77;;
19897;SDS011;10111;50.814;4.572;2022-11-22T01:50:48;9.10;;;2.47;;
19897;SDS011;10111;50.814;4.572;2022-11-22T01:53:19;9.13;;;2.17;;
19897;SDS011;10111;50.814;4.572;2022-11-22T01:55:58;8.17;;;2.63;;
19897;SDS011;10111;50.814;4.572;2022-11-22T01:58:24;5.07;;;1.60;;
19897;SDS011;10111;50.814;4.572;2022-11-22T02:00:53;5.57;;;2.50;;
19897;SDS011;10111;50.814;4.572;2022-11-22T02:03:19;5.00;;;1.80;;
19897;SDS011;10111;50.814;4.572;2022-11-22T02:05:47;6.40;;;2.43;;
19897;SDS011;10111;50.814;4.572;2022-11-22T02:11:09;8.90;;;2.00;;
19897;SDS011;10111;50.814;4.572;2022-11-22T02:13:38;9.03;;;2.03;;
19897;SDS011;10111;50.814;4.572;2022-11-22T02:16:06;4.67;;;1.97;;
19897;SDS011;10111;50.814;4.572;2022-11-22T02:18:35;4.60;;;1.60;;
19897;SDS011;10111;50.814;4.572;2022-11-22T02:21:02;5.30;;;2.00;;
19897;SDS011;10111;50.814;4.572;2022-11-22T02:23:38;5.53;;;1.90;;
19897;SDS011;10111;50.814;4.572;2022-11-22T02:26:13;4.87;;;1.80;;
19897;SDS011;10111;50.814;4.572;2022-11-22T02:28:39;4.60;;;1.70;;
19897;SDS011;10111;50.814;4.572;2022-11-22T02:31:05;3.60;;;1.70;;
19897;SDS011;10111;50.814;4.572;2022-11-22T02:33:31;7.20;;;2.43;;
19897;SDS011;10111;50.814;4.572;2022-11-22T02:35:57;1.70;;;1.00;;
19897;SDS011;10111;50.814;4.572;2022-11-22T02:38:23;5.37;;;1.57;;
19897;SDS011;10111;50.814;4.572;2022-11-22T02:40:55;9.03;;;2.53;;
19897;SDS011;10111;50.814;4.572;2022-11-22T02:43:27;7.83;;;1.50;;
19897;SDS011;10111;50.814;4.572;2022-11-22T02:46:01;7.00;;;1.80;;
19897;SDS011;10111;50.814;4.572;2022-11-22T02:48:30;7.17;;;1.37;;
19897;SDS011;10111;50.814;4.572;2022-11-22T02:50:56;8.10;;;2.00;;
19897;SDS011;10111;50.814;4.572;2022-11-22T02:53:22;6.00;;;1.67;;
19897;SDS011;10111;50.814;4.572;2022-11-22T02:55:48;11.57;;;1.83;;
19897;SDS011;10111;50.814;4.572;2022-11-22T02:58:14;7.10;;;2.00;;
19897;SDS011;10111;50.814;4.572;2022-11-22T03:00:40;10.33;;;1.83;;
19897;SDS011;10111;50.814;4.572;2022-11-22T03:03:06;6.13;;;1.40;;
19897;SDS011;10111;50.814;4.572;2022-11-22T03:05:31;11.17;;;2.37;;
19897;SDS011;10111;50.814;4.572;2022-11-22T03:07:57;6.03;;;1.93;;
19897;SDS011;10111;50.814;4.572;2022-11-22T03:10:23;6.07;;;1.60;;
19897;SDS011;10111;50.814;4.572;2022-11-22T03:12:49;3.47;;;1.50;;
19897;SDS011;10111;50.814;4.572;2022-11-22T03:15:14;4.93;;;1.27;;
19897;SDS011;10111;50.814;4.572;2022-11-22T03:17:40;7.13;;;1.73;;
19897;SDS011;10111;50.814;4.572;2022-11-22T03:20:06;4.37;;;1.87;;
19897;SDS011;10111;50.814;4.572;2022-11-22T03:22:32;4.50;;;1.43;;
19897;SDS011;10111;50.814;4.572;2022-11-22T03:24:58;3.37;;;1.30;;
19897;SDS011;10111;50.814;4.572;2022-11-22T03:27:24;4.47;;;1.30;;
19897;SDS011;10111;50.814;4.572;2022-11-22T03:29:49;4.40;;;1.40;;
19897;SDS011;10111;50.814;4.572;2022-11-22T03:32:15;4.87;;;1.70;;
19897;SDS011;10111;50.814;4.572;2022-11-22T03:34:40;3.77;;;1.50;;
19897;SDS011;10111;50.814;4.572;2022-11-22T03:37:06;5.60;;;1.40;;
19897;SDS011;10111;50.814;4.572;2022-11-22T03:39:32;3.57;;;1.47;;
19897;SDS011;10111;50.814;4.572;2022-11-22T03:41:57;5.57;;;1.80;;
19897;SDS011;10111;50.814;4.572;2022-11-22T03:44:23;5.20;;;1.40;;
19897;SDS011;10111;50.814;4.572;2022-11-22T03:46:49;4.70;;;1.83;;
19897;SDS011;10111;50.814;4.572;2022-11-22T03:49:14;8.67;;;2.87;;
19897;SDS011;10111;50.814;4.572;2022-11-22T03:51:40;5.17;;;1.40;;
19897;SDS011;10111;50.814;4.572;2022-11-22T03:54:05;7.30;;;1.20;;
19897;SDS011;10111;50.814;4.572;2022-11-22T03:56:31;3.93;;;1.43;;
19897;SDS011;10111;50.814;4.572;2022-11-22T03:58:57;3.97;;;1.70;;
19897;SDS011;10111;50.814;4.572;2022-11-22T04:01:22;4.90;;;1.77;;
19897;SDS011;10111;50.814;4.572;2022-11-22T04:03:48;10.27;;;2.03;;
19897;SDS011;10111;50.814;4.572;2022-11-22T04:06:14;4.67;;;2.07;;
19897;SDS011;10111;50.814;4.572;2022-11-22T04:08:39;2.23;;;1.40;;
19897;SDS011;10111;50.814;4.572;2022-11-22T04:11:05;4.27;;;1.73;;
19897;SDS011;10111;50.814;4.572;2022-11-22T04:13:31;2.80;;;1.73;;
19897;SDS011;10111;50.814;4.572;2022-11-22T04:16:15;2.47;;;2.13;;
19897;SDS011;10111;50.814;4.572;2022-11-22T04:18:40;6.77;;;2.10;;
19897;SDS011;10111;50.814;4.572;2022-11-22T04:21:06;4.20;;;1.70;;
19897;SDS011;10111;50.814;4.572;2022-11-22T04:23:50;4.47;;;1.50;;
19897;SDS011;10111;50.814;4.572;2022-11-22T04:26:36;3.97;;;2.10;;
19897;SDS011;10111;50.814;4.572;2022-11-22T04:29:02;3.23;;;1.67;;
19897;SDS011;10111;50.814;4.572;2022-11-22T04:31:27;3.80;;;1.63;;
19897;SDS011;10111;50.814;4.572;2022-11-22T04:34:12;4.17;;;1.63;;
19897;SDS011;10111;50.814;4.572;2022-11-22T04:36:38;4.53;;;1.43;;
19897;SDS011;10111;50.814;4.572;2022-11-22T04:39:03;3.77;;;1.50;;
19897;SDS011;10111;50.814;4.572;2022-11-22T04:41:29;6.63;;;1.30;;
19897;SDS011;10111;50.814;4.572;2022-11-22T04:43:54;2.93;;;1.60;;
19897;SDS011;10111;50.814;4.572;2022-11-22T04:46:39;3.47;;;1.80;;
19897;SDS011;10111;50.814;4.572;2022-11-22T04:49:04;3.93;;;1.80;;
19897;SDS011;10111;50.814;4.572;2022-11-22T04:51:30;4.77;;;2.40;;
19897;SDS011;10111;50.814;4.572;2022-11-22T04:54:14;5.97;;;1.67;;
19897;SDS011;10111;50.814;4.572;2022-11-22T04:56:40;4.97;;;1.70;;
19897;SDS011;10111;50.814;4.572;2022-11-22T04:59:05;5.73;;;1.87;;
19897;SDS011;10111;50.814;4.572;2022-11-22T05:01:31;9.47;;;2.50;;
19897;SDS011;10111;50.814;4.572;2022-11-22T05:03:57;8.47;;;2.47;;
19897;SDS011;10111;50.814;4.572;2022-11-22T05:06:22;4.87;;;2.03;;
19897;SDS011;10111;50.814;4.572;2022-11-22T05:08:48;7.27;;;2.03;;
19897;SDS011;10111;50.814;4.572;2022-11-22T05:11:13;6.97;;;1.90;;
19897;SDS011;10111;50.814;4.572;2022-11-22T05:13:40;12.57;;;2.30;;
19897;SDS011;10111;50.814;4.572;2022-11-22T05:16:07;3.17;;;2.20;;
19897;SDS011;10111;50.814;4.572;2022-11-22T05:18:34;7.77;;;2.67;;
19897;SDS011;10111;50.814;4.572;2022-11-22T05:21:18;7.20;;;2.20;;
19897;SDS011;10111;50.814;4.572;2022-11-22T05:23:44;9.10;;;2.07;;
19897;SDS011;10111;50.814;4.572;2022-11-22T05:26:36;4.33;;;1.47;;
19897;SDS011;10111;50.814;4.572;2022-11-22T05:29:06;6.37;;;2.80;;
19897;SDS011;10111;50.814;4.572;2022-11-22T05:31:34;6.20;;;2.60;;
19897;SDS011;10111;50.814;4.572;2022-11-22T05:34:00;8.47;;;2.10;;
19897;SDS011;10111;50.814;4.572;2022-11-22T05:36:29;5.60;;;2.00;;
19897;SDS011;10111;50.814;4.572;2022-11-22T05:38:56;6.90;;;2.50;;
19897;SDS011;10111;50.814;4.572;2022-11-22T05:41:21;6.03;;;2.83;;
19897;SDS011;10111;50.814;4.572;2022-11-22T05:43:47;5.80;;;1.90;;
19897;SDS011;10111;50.814;4.572;2022-11-22T05:46:14;7.20;;;2.27;;
19897;SDS011;10111;50.814;4.572;2022-11-22T05:48:44;4.30;;;2.00;;
19897;SDS011;10111;50.814;4.572;2022-11-22T05:51:11;6.80;;;2.23;;
19897;SDS011;10111;50.814;4.572;2022-11-22T05:53:39;7.43;;;2.93;;
19897;SDS011;10111;50.814;4.572;2022-11-22T05:56:06;4.83;;;1.80;;
19897;SDS011;10111;50.814;4.572;2022-11-22T05:58:34;7.10;;;1.80;;
19897;SDS011;10111;50.814;4.572;2022-11-22T06:01:03;4.60;;;1.90;;
19897;SDS011;10111;50.814;4.572;2022-11-22T06:03:31;9.27;;;2.17;;
19897;SDS011;10111;50.814;4.572;2022-11-22T06:05:57;4.00;;;1.67;;
19897;SDS011;10111;50.814;4.572;2022-11-22T06:08:22;5.23;;;1.87;;
19897;SDS011;10111;50.814;4.572;2022-11-22T06:10:48;4.03;;;2.20;;
19897;SDS011;10111;50.814;4.572;2022-11-22T06:13:13;5.17;;;2.47;;
19897;SDS011;10111;50.814;4.572;2022-11-22T06:15:39;2.23;;;1.97;;
19897;SDS011;10111;50.814;4.572;2022-11-22T06:18:05;5.30;;;2.30;;
19897;SDS011;10111;50.814;4.572;2022-11-22T06:20:30;3.10;;;1.50;;
19897;SDS011;10111;50.814;4.572;2022-11-22T06:22:56;7.70;;;1.90;;
19897;SDS011;10111;50.814;4.572;2022-11-22T06:25:23;5.13;;;1.97;;
19897;SDS011;10111;50.814;4.572;2022-11-22T06:27:49;7.10;;;1.93;;
19897;SDS011;10111;50.814;4.572;2022-11-22T06:30:15;8.10;;;2.33;;
19897;SDS011;10111;50.814;4.572;2022-11-22T06:32:40;2.70;;;1.53;;
19897;SDS011;10111;50.814;4.572;2022-11-22T06:35:06;4.57;;;1.87;;
19897;SDS011;10111;50.814;4.572;2022-11-22T06:37:32;4.27;;;2.47;;
19897;SDS011;10111;50.814;4.572;2022-11-22T06:39:57;5.43;;;2.30;;
19897;SDS011;10111;50.814;4.572;2022-11-22T06:42:23;3.77;;;1.67;;
19897;SDS011;10111;50.814;4.572;2022-11-22T06:44:49;5.70;;;1.80;;
19897;SDS011;10111;50.814;4.572;2022-11-22T06:47:14;3.67;;;1.67;;
19897;SDS011;10111;50.814;4.572;2022-11-22T06:49:41;6.17;;;1.23;;
19897;SDS011;10111;50.814;4.572;2022-11-22T06:52:08;5.13;;;1.53;;
19897;SDS011;10111;50.814;4.572;2022-11-22T06:54:33;2.47;;;1.80;;
19897;SDS011;10111;50.814;4.572;2022-11-22T06:56:59;3.43;;;1.70;;
19897;SDS011;10111;50.814;4.572;2022-11-22T06:59:25;4.23;;;1.90;;
19897;SDS011;10111;50.814;4.572;2022-11-22T07:01:50;3.27;;;1.73;;
19897;SDS011;10111;50.814;4.572;2022-11-22T07:04:16;6.80;;;1.90;;
19897;SDS011;10111;50.814;4.572;2022-11-22T07:06:41;4.40;;;1.83;;
19897;SDS011;10111;50.814;4.572;2022-11-22T07:09:08;3.90;;;1.50;;
19897;SDS011;10111;50.814;4.572;2022-11-22T07:11:35;2.93;;;1.53;;
19897;SDS011;10111;50.814;4.572;2022-11-22T07:14:02;6.70;;;1.60;;
19897;SDS011;10111;50.814;4.572;2022-11-22T07:16:29;9.17;;;1.90;;
19897;SDS011;10111;50.814;4.572;2022-11-22T07:18:54;4.23;;;2.17;;
19897;SDS011;10111;50.814;4.572;2022-11-22T07:21:21;2.23;;;1.60;;
19897;SDS011;10111;50.814;4.572;2022-11-22T07:23:48;2.77;;;1.50;;
19897;SDS011;10111;50.814;4.572;2022-11-22T07:26:16;4.33;;;2.57;;
19897;SDS011;10111;50.814;4.572;2022-11-22T07:28:43;4.07;;;1.53;;
19897;SDS011;10111;50.814;4.572;2022-11-22T07:31:09;6.03;;;1.87;;
19897;SDS011;10111;50.814;4.572;2022-11-22T07:33:36;3.00;;;1.50;;
19897;SDS011;10111;50.814;4.572;2022-11-22T07:36:11;6.17;;;1.87;;
19897;SDS011;10111;50.814;4.572;2022-11-22T07:38:39;2.37;;;1.67;;
19897;SDS011;10111;50.814;4.572;2022-11-22T07:41:05;2.83;;;2.43;;
19897;SDS011;10111;50.814;4.572;2022-11-22T07:43:32;5.77;;;1.97;;
19897;SDS011;10111;50.814;4.572;2022-11-22T07:46:02;5.27;;;2.07;;
19897;SDS011;10111;50.814;4.572;2022-11-22T07:48:29;4.07;;;1.67;;
19897;SDS011;10111;50.814;4.572;2022-11-22T07:50:54;4.30;;;1.87;;
19897;SDS011;10111;50.814;4.572;2022-11-22T07:53:20;6.40;;;1.90;;
19897;SDS011;10111;50.814;4.572;2022-11-22T07:55:46;7.57;;;2.63;;
19897;SDS011;10111;50.814;4.572;2022-11-22T07:58:11;5.03;;;3.60;;
19897;SDS011;10111;50.814;4.572;2022-11-22T08:00:37;3.47;;;1.97;;
19897;SDS011;10111;50.814;4.572;2022-11-22T08:03:03;3.27;;;1.80;;
19897;SDS011;10111;50.814;4.572;2022-11-22T08:05:30;7.03;;;2.10;;
19897;SDS011;10111;50.814;4.572;2022-11-22T08:07:56;3.60;;;2.37;;
19897;SDS011;10111;50.814;4.572;2022-11-22T08:10:22;5.50;;;2.27;;
19897;SDS011;10111;50.814;4.572;2022-11-22T08:12:47;5.63;;;2.50;;
19897;SDS011;10111;50.814;4.572;2022-11-22T08:15:14;3.93;;;1.73;;
19897;SDS011;10111;50.814;4.572;2022-11-22T08:17:40;4.20;;;1.90;;
19897;SDS011;10111;50.814;4.572;2022-11-22T08:20:06;3.60;;;1.80;;
19897;SDS011;10111;50.814;4.572;2022-11-22T08:22:38;5.53;;;2.37;;
19897;SDS011;10111;50.814;4.572;2022-11-22T08:25:04;6.77;;;2.83;;
19897;SDS011;10111;50.814;4.572;2022-11-22T08:27:36;5.90;;;2.27;;
19897;SDS011;10111;50.814;4.572;2022-11-22T08:30:03;2.87;;;1.80;;
19897;SDS011;10111;50.814;4.572;2022-11-22T08:32:29;4.60;;;2.60;;
19897;SDS011;10111;50.814;4.572;2022-11-22T08:34:54;7.43;;;2.53;;
19897;SDS011;10111;50.814;4.572;2022-11-22T08:37:20;6.57;;;2.10;;
19897;SDS011;10111;50.814;4.572;2022-11-22T08:39:46;3.30;;;1.83;;
19897;SDS011;10111;50.814;4.572;2022-11-22T08:42:11;4.03;;;1.87;;
19897;SDS011;10111;50.814;4.572;2022-11-22T08:44:37;3.07;;;1.57;;
19897;SDS011;10111;50.814;4.572;2022-11-22T08:47:02;4.93;;;2.07;;
19897;SDS011;10111;50.814;4.572;2022-11-22T08:49:28;5.80;;;2.00;;
19897;SDS011;10111;50.814;4.572;2022-11-22T08:51:54;5.47;;;1.93;;
19897;SDS011;10111;50.814;4.572;2022-11-22T08:54:19;4.63;;;2.10;;
19897;SDS011;10111;50.814;4.572;2022-11-22T08:56:45;5.43;;;1.93;;
19897;SDS011;10111;50.814;4.572;2022-11-22T08:59:10;5.23;;;2.63;;
19897;SDS011;10111;50.814;4.572;2022-11-22T09:01:36;3.83;;;2.23;;
19897;SDS011;10111;50.814;4.572;2022-11-22T09:04:02;5.57;;;1.77;;
19897;SDS011;10111;50.814;4.572;2022-11-22T09:06:27;6.43;;;2.23;;
19897;SDS011;10111;50.814;4.572;2022-11-22T09:08:53;6.73;;;2.10;;
19897;SDS011;10111;50.814;4.572;2022-11-22T09:11:19;4.30;;;2.67;;
19897;SDS011;10111;50.814;4.572;2022-11-22T09:13:45;3.17;;;1.50;;
19897;SDS011;10111;50.814;4.572;2022-11-22T09:18:38;4.70;;;1.83;;
19897;SDS011;10111;50.814;4.572;2022-11-22T09:21:04;4.43;;;1.97;;
19897;SDS011;10111;50.814;4.572;2022-11-22T09:23:32;4.93;;;1.80;;
19897;SDS011;10111;50.814;4.572;2022-11-22T09:25:59;5.33;;;1.73;;
19897;SDS011;10111;50.814;4.572;2022-11-22T09:28:29;2.77;;;1.50;;
19897;SDS011;10111;50.814;4.572;2022-11-22T09:30:59;2.83;;;1.27;;
19897;SDS011;10111;50.814;4.572;2022-11-22T09:33:26;3.83;;;1.43;;
19897;SDS011;10111;50.814;4.572;2022-11-22T09:35:57;4.30;;;1.70;;
19897;SDS011;10111;50.814;4.572;2022-11-22T09:38:31;6.17;;;1.80;;
19897;SDS011;10111;50.814;4.572;2022-11-22T09:40:57;1.67;;;1.43;;
19897;SDS011;10111;50.814;4.572;2022-11-22T09:43:30;4.20;;;1.53;;
19897;SDS011;10111;50.814;4.572;2022-11-22T09:48:43;3.37;;;1.47;;
19897;SDS011;10111;50.814;4.572;2022-11-22T09:51:18;1.97;;;1.30;;
19897;SDS011;10111;50.814;4.572;2022-11-22T09:53:48;2.47;;;1.13;;
19897;SDS011;10111;50.814;4.572;2022-11-22T09:56:24;1.83;;;1.17;;
19897;SDS011;10111;50.814;4.572;2022-11-22T09:59:14;1.63;;;1.30;;
19897;SDS011;10111;50.814;4.572;2022-11-22T10:04:21;1.23;;;1.00;;
19897;SDS011;10111;50.814;4.572;2022-11-22T10:07:00;2.53;;;1.57;;
19897;SDS011;10111;50.814;4.572;2022-11-22T10:09:43;4.10;;;1.00;;
19897;SDS011;10111;50.814;4.572;2022-11-22T10:15:37;2.37;;;1.30;;
19897;SDS011;10111;50.814;4.572;2022-11-22T10:21:00;3.03;;;0.93;;
19897;SDS011;10111;50.814;4.572;2022-11-22T10:23:26;1.47;;;1.00;;
19897;SDS011;10111;50.814;4.572;2022-11-22T10:26:26;1.70;;;1.20;;
19897;SDS011;10111;50.814;4.572;2022-11-22T10:36:49;1.27;;;1.00;;
19897;SDS011;10111;50.814;4.572;2022-11-22T10:39:30;2.97;;;0.87;;
19897;SDS011;10111;50.814;4.572;2022-11-22T10:44:36;1.80;;;1.40;;
19897;SDS011;10111;50.814;4.572;2022-11-22T10:50:12;1.43;;;0.87;;
19897;SDS011;10111;50.814;4.572;2022-11-22T11:00:55;1.10;;;1.00;;
19897;SDS011;10111;50.814;4.572;2022-11-22T11:03:44;2.93;;;1.27;;
19897;SDS011;10111;50.814;4.572;2022-11-22T11:06:16;2.80;;;1.00;;
19897;SDS011;10111;50.814;4.572;2022-11-22T11:08:51;1.43;;;1.10;;
19897;SDS011;10111;50.814;4.572;2022-11-22T11:11:30;1.97;;;1.10;;
19897;SDS011;10111;50.814;4.572;2022-11-22T11:17:25;1.17;;;0.87;;
19897;SDS011;10111;50.814;4.572;2022-11-22T11:19:54;2.13;;;0.80;;
19897;SDS011;10111;50.814;4.572;2022-11-22T11:22:24;1.83;;;1.03;;
19897;SDS011;10111;50.814;4.572;2022-11-22T11:24:52;1.20;;;0.90;;
19897;SDS011;10111;50.814;4.572;2022-11-22T11:27:18;2.63;;;0.90;;
19897;SDS011;10111;50.814;4.572;2022-11-22T11:29:49;1.80;;;0.80;;
19897;SDS011;10111;50.814;4.572;2022-11-22T11:32:26;1.27;;;0.93;;
19897;SDS011;10111;50.814;4.572;2022-11-22T11:34:56;2.80;;;1.20;;
19897;SDS011;10111;50.814;4.572;2022-11-22T11:37:32;1.13;;;0.93;;
19897;SDS011;10111;50.814;4.572;2022-11-22T11:39:59;3.03;;;1.20;;
19897;SDS011;10111;50.814;4.572;2022-11-22T11:42:26;1.20;;;0.90;;
19897;SDS011;10111;50.814;4.572;2022-11-22T11:44:53;1.33;;;0.97;;
19897;SDS011;10111;50.814;4.572;2022-11-22T11:47:39;1.90;;;1.10;;
19897;SDS011;10111;50.814;4.572;2022-11-22T11:50:15;1.20;;;0.90;;
19897;SDS011;10111;50.814;4.572;2022-11-22T11:52:52;1.17;;;0.73;;
19897;SDS011;10111;50.814;4.572;2022-11-22T11:55:20;1.07;;;0.90;;
19897;SDS011;10111;50.814;4.572;2022-11-22T11:57:46;1.20;;;1.10;;
19897;SDS011;10111;50.814;4.572;2022-11-22T12:00:20;1.30;;;1.00;;
19897;SDS011;10111;50.814;4.572;2022-11-22T12:02:54;0.93;;;0.70;;
19897;SDS011;10111;50.814;4.572;2022-11-22T12:05:27;0.67;;;0.67;;
19897;SDS011;10111;50.814;4.572;2022-11-22T12:07:54;2.37;;;0.70;;
19897;SDS011;10111;50.814;4.572;2022-11-22T12:13:27;1.23;;;0.93;;
19897;SDS011;10111;50.814;4.572;2022-11-22T12:16:08;0.80;;;0.57;;
19897;SDS011;10111;50.814;4.572;2022-11-22T12:18:49;0.70;;;0.70;;
19897;SDS011;10111;50.814;4.572;2022-11-22T12:21:25;1.03;;;0.77;;
19897;SDS011;10111;50.814;4.572;2022-11-22T12:26:27;0.57;;;0.57;;
19897;SDS011;10111;50.814;4.572;2022-11-22T12:28:54;1.00;;;0.70;;
19897;SDS011;10111;50.814;4.572;2022-11-22T12:31:34;0.90;;;0.80;;
19897;SDS011;10111;50.814;4.572;2022-11-22T12:37:04;1.57;;;0.80;;
19897;SDS011;10111;50.814;4.572;2022-11-22T12:39:35;0.80;;;0.80;;
19897;SDS011;10111;50.814;4.572;2022-11-22T12:44:48;0.63;;;0.60;;
19897;SDS011;10111;50.814;4.572;2022-11-22T12:47:19;1.00;;;0.73;;
19897;SDS011;10111;50.814;4.572;2022-11-22T12:50:02;0.70;;;0.70;;
19897;SDS011;10111;50.814;4.572;2022-11-22T12:52:44;0.63;;;0.63;;
19897;SDS011;10111;50.814;4.572;2022-11-22T12:55:27;1.03;;;0.47;;
19897;SDS011;10111;50.814;4.572;2022-11-22T12:58:23;0.83;;;0.83;;
19897;SDS011;10111;50.814;4.572;2022-11-22T13:04:02;0.70;;;0.70;;
19897;SDS011;10111;50.814;4.572;2022-11-22T13:06:26;3.07;;;0.70;;
19897;SDS011;10111;50.814;4.572;2022-11-22T13:09:02;2.40;;;0.80;;
19897;SDS011;10111;50.814;4.572;2022-11-22T13:14:21;1.40;;;0.70;;
19897;SDS011;10111;50.814;4.572;2022-11-22T13:17:08;1.07;;;0.67;;
19897;SDS011;10111;50.814;4.572;2022-11-22T13:19:55;1.47;;;0.90;;
19897;SDS011;10111;50.814;4.572;2022-11-22T13:28:01;0.87;;;0.87;;
19897;SDS011;10111;50.814;4.572;2022-11-22T13:30:34;0.97;;;0.83;;
19897;SDS011;10111;50.814;4.572;2022-11-22T13:33:03;1.40;;;0.90;;
19897;SDS011;10111;50.814;4.572;2022-11-22T13:35:31;1.23;;;0.90;;
19897;SDS011;10111;50.814;4.572;2022-11-22T13:38:05;1.37;;;1.00;;
19897;SDS011;10111;50.814;4.572;2022-11-22T13:40:39;1.53;;;1.00;;
19897;SDS011;10111;50.814;4.572;2022-11-22T13:45:51;1.90;;;0.87;;
19897;SDS011;10111;50.814;4.572;2022-11-22T13:51:04;1.53;;;0.70;;
19897;SDS011;10111;50.814;4.572;2022-11-22T13:53:33;0.67;;;0.67;;
19897;SDS011;10111;50.814;4.572;2022-11-22T14:06:45;1.47;;;0.80;;
19897;SDS011;10111;50.814;4.572;2022-11-22T14:09:36;3.50;;;1.00;;
19897;SDS011;10111;50.814;4.572;2022-11-22T14:15:13;1.40;;;0.93;;
19897;SDS011;10111;50.814;4.572;2022-11-22T14:20:30;0.90;;;0.90;;
19897;SDS011;10111;50.814;4.572;2022-11-22T14:23:08;1.57;;;1.10;;
19897;SDS011;10111;50.814;4.572;2022-11-22T14:31:12;1.87;;;1.10;;
19897;SDS011;10111;50.814;4.572;2022-11-22T14:36:39;1.50;;;1.10;;
19897;SDS011;10111;50.814;4.572;2022-11-22T14:47:41;1.37;;;1.13;;
19897;SDS011;10111;50.814;4.572;2022-11-22T14:50:08;2.83;;;1.23;;
19897;SDS011;10111;50.814;4.572;2022-11-22T14:52:40;2.47;;;0.80;;
19897;SDS011;10111;50.814;4.572;2022-11-22T14:55:12;1.77;;;0.93;;
19897;SDS011;10111;50.814;4.572;2022-11-22T14:57:41;6.20;;;2.67;;
19897;SDS011;10111;50.814;4.572;2022-11-22T15:00:20;1.97;;;0.70;;
19897;SDS011;10111;50.814;4.572;2022-11-22T15:08:30;2.40;;;0.73;;
19897;SDS011;10111;50.814;4.572;2022-11-22T15:11:09;1.07;;;0.80;;
19897;SDS011;10111;50.814;4.572;2022-11-22T15:16:24;1.37;;;1.00;;
19897;SDS011;10111;50.814;4.572;2022-11-22T15:18:52;3.60;;;0.83;;
19897;SDS011;10111;50.814;4.572;2022-11-22T15:23:54;2.90;;;1.07;;
19897;SDS011;10111;50.814;4.572;2022-11-22T15:26:21;2.40;;;1.27;;
19897;SDS011;10111;50.814;4.572;2022-11-22T15:28:49;3.37;;;0.97;;
19897;SDS011;10111;50.814;4.572;2022-11-22T15:31:19;4.67;;;1.13;;
19897;SDS011;10111;50.814;4.572;2022-11-22T15:33:47;3.33;;;1.40;;
19897;SDS011;10111;50.814;4.572;2022-11-22T15:38:50;2.00;;;1.20;;
19897;SDS011;10111;50.814;4.572;2022-11-22T15:41:17;1.20;;;0.70;;
19897;SDS011;10111;50.814;4.572;2022-11-22T15:43:51;2.60;;;1.20;;
19897;SDS011;10111;50.814;4.572;2022-11-22T15:46:19;3.00;;;1.23;;
19897;SDS011;10111;50.814;4.572;2022-11-22T15:48:49;3.20;;;1.40;;
19897;SDS011;10111;50.814;4.572;2022-11-22T15:59:11;2.93;;;1.20;;
19897;SDS011;10111;50.814;4.572;2022-11-22T16:01:41;4.67;;;1.80;;
19897;SDS011;10111;50.814;4.572;2022-11-22T16:04:13;7.67;;;1.63;;
19897;SDS011;10111;50.814;4.572;2022-11-22T16:06:46;3.23;;;1.07;;
19897;SDS011;10111;50.814;4.572;2022-11-22T16:09:20;2.87;;;1.63;;
19897;SDS011;10111;50.814;4.572;2022-11-22T16:11:53;2.90;;;1.40;;
19897;SDS011;10111;50.814;4.572;2022-11-22T16:14:45;3.93;;;1.73;;
19897;SDS011;10111;50.814;4.572;2022-11-22T16:17:15;8.03;;;2.20;;
19897;SDS011;10111;50.814;4.572;2022-11-22T16:19:48;5.80;;;1.70;;
19897;SDS011;10111;50.814;4.572;2022-11-22T16:22:27;4.23;;;1.57;;
19897;SDS011;10111;50.814;4.572;2022-11-22T16:25:18;4.43;;;1.67;;
19897;SDS011;10111;50.814;4.572;2022-11-22T16:27:46;4.50;;;1.70;;
19897;SDS011;10111;50.814;4.572;2022-11-22T16:30:13;2.03;;;1.30;;
19897;SDS011;10111;50.814;4.572;2022-11-22T16:32:39;3.97;;;1.60;;
19897;SDS011;10111;50.814;4.572;2022-11-22T16:35:14;8.83;;;2.27;;
19897;SDS011;10111;50.814;4.572;2022-11-22T16:37:41;4.97;;;2.00;;
19897;SDS011;10111;50.814;4.572;2022-11-22T16:40:09;3.63;;;1.70;;
19897;SDS011;10111;50.814;4.572;2022-11-22T16:42:39;2.93;;;1.23;;
19897;SDS011;10111;50.814;4.572;2022-11-22T16:45:15;2.90;;;1.67;;
19897;SDS011;10111;50.814;4.572;2022-11-22T16:47:44;4.23;;;1.73;;
19897;SDS011;10111;50.814;4.572;2022-11-22T16:50:13;3.87;;;1.80;;
19897;SDS011;10111;50.814;4.572;2022-11-22T16:52:40;6.00;;;1.90;;
19897;SDS011;10111;50.814;4.572;2022-11-22T16:55:18;6.77;;;2.53;;
19897;SDS011;10111;50.814;4.572;2022-11-22T16:57:44;2.73;;;1.83;;
19897;SDS011;10111;50.814;4.572;2022-11-22T17:00:10;4.70;;;1.83;;
19897;SDS011;10111;50.814;4.572;2022-11-22T17:02:40;7.17;;;2.83;;
19897;SDS011;10111;50.814;4.572;2022-11-22T17:05:06;10.30;;;3.00;;